Overview Statistics Trail Chart Weather Telemetry Raw packets
 

This is the latest recevied weather packets stored in our database for station/object PU5FJO-13. If no packets are shown the sender has not sent any weather packets the latest 10 day(s).

<< 26 27 28 29 30 31 32 >>
Time Temp. Humidity Pressure Rain* Wind** Luminosity Snow
1777432567 15.56° C 86% 1017.9 hPa - - - -
1777431967 15.56° C 85% 1018.3 hPa - - - -
1777431367 15.56° C 84% 1018.3 hPa - - - -
1777430767 15.56° C 83% 1018.2 hPa - - - -
1777430167 17.22° C 76% 1017.9 hPa - - - -
1777429567 17.22° C 76% 1018.5 hPa - - - -
1777428967 17.22° C 76% 1018.9 hPa - - - -
1777428367 16.11° C 77% 1019.2 hPa - - - -
1777427767 17.22° C 73% 1019 hPa - - - -
1777427167 17.22° C 73% 1018.7 hPa - - - -
1777426567 17.22° C 72% 1019 hPa - - - -
1777425967 16.67° C 75% 1018.9 hPa - - - -
1777425367 16.67° C 75% 1018.9 hPa - - - -
1777424767 16.11° C 75% 1018.8 hPa - - - -
1777424167 16.67° C 74% 1018.5 hPa - - - -
1777423567 16.67° C 74% 1018.3 hPa - - - -
1777422967 16.67° C 73% 1018.4 hPa - - - -
1777422367 16.67° C 72% 1018.4 hPa - - - -
1777421767 16.67° C 73% 1018.5 hPa - - - -
1777421167 16.67° C 74% 1018.6 hPa - - - -
1777420567 17.22° C 73% 1018.4 hPa - - - -
1777419967 17.78° C 68% 1018.5 hPa - - - -
1777419367 18.33° C 68% 1018.8 hPa - - - -
1777418766 18.33° C 70% 1018.7 hPa - - - -
1777418167 17.22° C 72% 1019.2 hPa - - - -

* Rain since midnight (hover to see other rain measurements)
** Current wind speed in m/s (hover to see current wind gust speed)